sensor_id;sensor_type;location;lat;lon;timestamp;P1;durP1;ratioP1;P2;durP2;ratioP2
32407;SDS011;18869;55.970;37.502;2023-03-26T00:02:16;20.83;;;14.27;;
32407;SDS011;18869;55.970;37.502;2023-03-26T00:04:44;21.33;;;13.87;;
32407;SDS011;18869;55.970;37.502;2023-03-26T00:07:12;30.20;;;14.30;;
32407;SDS011;18869;55.970;37.502;2023-03-26T00:09:40;36.47;;;13.40;;
32407;SDS011;18869;55.970;37.502;2023-03-26T00:12:10;43.13;;;15.13;;
32407;SDS011;18869;55.970;37.502;2023-03-26T00:14:38;67.80;;;14.90;;
32407;SDS011;18869;55.970;37.502;2023-03-26T00:17:06;69.60;;;17.00;;
32407;SDS011;18869;55.970;37.502;2023-03-26T00:19:35;20.43;;;14.17;;
32407;SDS011;18869;55.970;37.502;2023-03-26T00:22:02;22.10;;;14.83;;
32407;SDS011;18869;55.970;37.502;2023-03-26T00:24:30;24.00;;;15.60;;
32407;SDS011;18869;55.970;37.502;2023-03-26T00:26:58;23.93;;;15.53;;
32407;SDS011;18869;55.970;37.502;2023-03-26T00:29:28;24.43;;;15.00;;
32407;SDS011;18869;55.970;37.502;2023-03-26T00:31:58;25.80;;;16.33;;
32407;SDS011;18869;55.970;37.502;2023-03-26T00:34:26;23.27;;;14.00;;
32407;SDS011;18869;55.970;37.502;2023-03-26T00:36:53;31.77;;;15.17;;
32407;SDS011;18869;55.970;37.502;2023-03-26T00:39:27;23.30;;;14.60;;
32407;SDS011;18869;55.970;37.502;2023-03-26T00:42:00;40.60;;;15.97;;
32407;SDS011;18869;55.970;37.502;2023-03-26T00:44:34;22.90;;;14.73;;
32407;SDS011;18869;55.970;37.502;2023-03-26T00:47:01;55.23;;;16.43;;
32407;SDS011;18869;55.970;37.502;2023-03-26T00:49:29;91.07;;;17.27;;
32407;SDS011;18869;55.970;37.502;2023-03-26T00:51:57;26.40;;;14.23;;
32407;SDS011;18869;55.970;37.502;2023-03-26T00:54:26;24.57;;;13.87;;
32407;SDS011;18869;55.970;37.502;2023-03-26T00:56:53;24.07;;;14.17;;
32407;SDS011;18869;55.970;37.502;2023-03-26T00:59:21;42.03;;;14.37;;
32407;SDS011;18869;55.970;37.502;2023-03-26T01:01:50;22.27;;;13.60;;
32407;SDS011;18869;55.970;37.502;2023-03-26T01:04:20;23.20;;;13.97;;
32407;SDS011;18869;55.970;37.502;2023-03-26T01:06:52;25.90;;;14.87;;
32407;SDS011;18869;55.970;37.502;2023-03-26T01:09:22;52.77;;;14.87;;
32407;SDS011;18869;55.970;37.502;2023-03-26T01:11:56;25.57;;;14.57;;
32407;SDS011;18869;55.970;37.502;2023-03-26T01:14:24;45.20;;;14.13;;
32407;SDS011;18869;55.970;37.502;2023-03-26T01:16:55;24.53;;;14.17;;
32407;SDS011;18869;55.970;37.502;2023-03-26T01:19:26;22.70;;;13.20;;
32407;SDS011;18869;55.970;37.502;2023-03-26T01:21:58;29.43;;;14.73;;
32407;SDS011;18869;55.970;37.502;2023-03-26T01:24:28;44.37;;;14.83;;
32407;SDS011;18869;55.970;37.502;2023-03-26T01:27:02;21.10;;;13.50;;
32407;SDS011;18869;55.970;37.502;2023-03-26T01:29:38;20.90;;;13.30;;
32407;SDS011;18869;55.970;37.502;2023-03-26T01:32:21;17.23;;;13.13;;
32407;SDS011;18869;55.970;37.502;2023-03-26T01:34:55;19.03;;;13.53;;
32407;SDS011;18869;55.970;37.502;2023-03-26T01:37:32;19.67;;;14.07;;
32407;SDS011;18869;55.970;37.502;2023-03-26T01:40:08;18.17;;;13.40;;
32407;SDS011;18869;55.970;37.502;2023-03-26T01:42:42;20.03;;;13.60;;
32407;SDS011;18869;55.970;37.502;2023-03-26T01:45:14;22.37;;;13.53;;
32407;SDS011;18869;55.970;37.502;2023-03-26T01:47:44;24.30;;;14.13;;
32407;SDS011;18869;55.970;37.502;2023-03-26T01:50:13;19.13;;;13.00;;
32407;SDS011;18869;55.970;37.502;2023-03-26T01:52:41;15.90;;;12.67;;
32407;SDS011;18869;55.970;37.502;2023-03-26T01:55:11;22.37;;;14.83;;
32407;SDS011;18869;55.970;37.502;2023-03-26T01:57:43;26.80;;;14.17;;
32407;SDS011;18869;55.970;37.502;2023-03-26T02:00:21;18.20;;;13.37;;
32407;SDS011;18869;55.970;37.502;2023-03-26T02:02:57;25.03;;;12.93;;
32407;SDS011;18869;55.970;37.502;2023-03-26T02:05:34;21.40;;;12.90;;
32407;SDS011;18869;55.970;37.502;2023-03-26T02:08:05;31.43;;;13.13;;
32407;SDS011;18869;55.970;37.502;2023-03-26T02:10:39;26.87;;;13.47;;
32407;SDS011;18869;55.970;37.502;2023-03-26T02:13:09;16.80;;;12.57;;
32407;SDS011;18869;55.970;37.502;2023-03-26T02:15:38;21.87;;;11.33;;
32407;SDS011;18869;55.970;37.502;2023-03-26T02:18:06;16.67;;;11.13;;
32407;SDS011;18869;55.970;37.502;2023-03-26T02:20:35;13.07;;;10.40;;
32407;SDS011;18869;55.970;37.502;2023-03-26T02:23:04;14.43;;;10.40;;
32407;SDS011;18869;55.970;37.502;2023-03-26T02:25:33;11.43;;;9.80;;
32407;SDS011;18869;55.970;37.502;2023-03-26T02:28:06;25.37;;;11.33;;
32407;SDS011;18869;55.970;37.502;2023-03-26T02:30:34;12.30;;;9.80;;
32407;SDS011;18869;55.970;37.502;2023-03-26T02:33:02;15.17;;;10.17;;
32407;SDS011;18869;55.970;37.502;2023-03-26T02:35:31;12.00;;;9.87;;
32407;SDS011;18869;55.970;37.502;2023-03-26T02:37:59;16.83;;;10.07;;
32407;SDS011;18869;55.970;37.502;2023-03-26T02:40:26;16.00;;;11.30;;
32407;SDS011;18869;55.970;37.502;2023-03-26T02:42:55;14.20;;;10.90;;
32407;SDS011;18869;55.970;37.502;2023-03-26T02:45:25;17.37;;;12.07;;
32407;SDS011;18869;55.970;37.502;2023-03-26T02:47:54;15.20;;;12.00;;
32407;SDS011;18869;55.970;37.502;2023-03-26T02:50:28;16.17;;;12.03;;
32407;SDS011;18869;55.970;37.502;2023-03-26T02:52:59;29.07;;;13.60;;
32407;SDS011;18869;55.970;37.502;2023-03-26T02:55:28;17.37;;;12.30;;
32407;SDS011;18869;55.970;37.502;2023-03-26T02:57:56;17.70;;;11.20;;
32407;SDS011;18869;55.970;37.502;2023-03-26T03:00:28;25.77;;;11.87;;
32407;SDS011;18869;55.970;37.502;2023-03-26T03:02:58;14.87;;;11.37;;
32407;SDS011;18869;55.970;37.502;2023-03-26T03:05:30;52.03;;;13.50;;
32407;SDS011;18869;55.970;37.502;2023-03-26T03:08:00;16.43;;;11.10;;
32407;SDS011;18869;55.970;37.502;2023-03-26T03:10:29;19.20;;;11.80;;
32407;SDS011;18869;55.970;37.502;2023-03-26T03:12:58;18.13;;;11.63;;
32407;SDS011;18869;55.970;37.502;2023-03-26T03:15:27;16.70;;;11.10;;
32407;SDS011;18869;55.970;37.502;2023-03-26T03:17:55;16.17;;;11.13;;
32407;SDS011;18869;55.970;37.502;2023-03-26T03:20:25;16.77;;;11.83;;
32407;SDS011;18869;55.970;37.502;2023-03-26T03:22:57;15.97;;;11.57;;
32407;SDS011;18869;55.970;37.502;2023-03-26T03:25:26;13.63;;;11.67;;
32407;SDS011;18869;55.970;37.502;2023-03-26T03:27:53;13.93;;;9.80;;
32407;SDS011;18869;55.970;37.502;2023-03-26T03:30:22;15.47;;;10.20;;
32407;SDS011;18869;55.970;37.502;2023-03-26T03:32:53;15.00;;;11.50;;
32407;SDS011;18869;55.970;37.502;2023-03-26T03:35:23;13.83;;;10.10;;
32407;SDS011;18869;55.970;37.502;2023-03-26T03:37:52;15.77;;;11.40;;
32407;SDS011;18869;55.970;37.502;2023-03-26T03:40:20;14.57;;;10.10;;
32407;SDS011;18869;55.970;37.502;2023-03-26T03:42:48;13.57;;;10.17;;
32407;SDS011;18869;55.970;37.502;2023-03-26T03:45:18;12.07;;;10.10;;
32407;SDS011;18869;55.970;37.502;2023-03-26T03:47:47;13.10;;;10.07;;
32407;SDS011;18869;55.970;37.502;2023-03-26T03:50:18;13.43;;;10.80;;
32407;SDS011;18869;55.970;37.502;2023-03-26T03:52:47;13.90;;;9.53;;
32407;SDS011;18869;55.970;37.502;2023-03-26T03:55:15;10.97;;;9.83;;
32407;SDS011;18869;55.970;37.502;2023-03-26T03:57:44;12.10;;;10.03;;
32407;SDS011;18869;55.970;37.502;2023-03-26T04:00:13;12.57;;;9.63;;
32407;SDS011;18869;55.970;37.502;2023-03-26T04:02:41;13.80;;;11.20;;
32407;SDS011;18869;55.970;37.502;2023-03-26T04:05:11;10.83;;;9.53;;
32407;SDS011;18869;55.970;37.502;2023-03-26T04:07:43;14.53;;;10.20;;
32407;SDS011;18869;55.970;37.502;2023-03-26T04:10:14;21.67;;;9.90;;
32407;SDS011;18869;55.970;37.502;2023-03-26T04:12:45;14.30;;;10.07;;
32407;SDS011;18869;55.970;37.502;2023-03-26T04:15:14;10.47;;;8.83;;
32407;SDS011;18869;55.970;37.502;2023-03-26T04:17:43;14.47;;;9.13;;
32407;SDS011;18869;55.970;37.502;2023-03-26T04:20:11;12.83;;;8.57;;
32407;SDS011;18869;55.970;37.502;2023-03-26T04:22:44;13.40;;;8.13;;
32407;SDS011;18869;55.970;37.502;2023-03-26T04:25:12;11.17;;;9.43;;
32407;SDS011;18869;55.970;37.502;2023-03-26T04:27:41;11.67;;;8.90;;
32407;SDS011;18869;55.970;37.502;2023-03-26T04:30:11;14.73;;;9.77;;
32407;SDS011;18869;55.970;37.502;2023-03-26T04:32:44;13.57;;;9.17;;
32407;SDS011;18869;55.970;37.502;2023-03-26T04:35:14;13.63;;;9.83;;
32407;SDS011;18869;55.970;37.502;2023-03-26T04:37:45;13.50;;;8.83;;
32407;SDS011;18869;55.970;37.502;2023-03-26T04:40:14;12.77;;;9.67;;
32407;SDS011;18869;55.970;37.502;2023-03-26T04:42:45;13.13;;;9.10;;
32407;SDS011;18869;55.970;37.502;2023-03-26T04:45:16;11.23;;;8.60;;
32407;SDS011;18869;55.970;37.502;2023-03-26T04:47:50;13.37;;;9.07;;
32407;SDS011;18869;55.970;37.502;2023-03-26T04:50:18;12.23;;;9.23;;
32407;SDS011;18869;55.970;37.502;2023-03-26T04:52:49;17.50;;;9.10;;
32407;SDS011;18869;55.970;37.502;2023-03-26T04:55:22;11.87;;;9.47;;
32407;SDS011;18869;55.970;37.502;2023-03-26T04:57:54;9.77;;;7.93;;
32407;SDS011;18869;55.970;37.502;2023-03-26T05:00:26;13.77;;;9.53;;
32407;SDS011;18869;55.970;37.502;2023-03-26T05:02:55;12.43;;;9.30;;
32407;SDS011;18869;55.970;37.502;2023-03-26T05:05:27;11.03;;;9.10;;
32407;SDS011;18869;55.970;37.502;2023-03-26T05:07:57;11.03;;;8.60;;
32407;SDS011;18869;55.970;37.502;2023-03-26T05:10:25;9.93;;;8.33;;
32407;SDS011;18869;55.970;37.502;2023-03-26T05:12:53;17.17;;;9.13;;
32407;SDS011;18869;55.970;37.502;2023-03-26T05:15:21;11.00;;;8.90;;
32407;SDS011;18869;55.970;37.502;2023-03-26T05:17:49;11.10;;;9.03;;
32407;SDS011;18869;55.970;37.502;2023-03-26T05:20:20;11.37;;;9.00;;
32407;SDS011;18869;55.970;37.502;2023-03-26T05:22:50;16.20;;;9.23;;
32407;SDS011;18869;55.970;37.502;2023-03-26T05:25:19;15.33;;;10.00;;
32407;SDS011;18869;55.970;37.502;2023-03-26T05:27:48;16.73;;;9.47;;
32407;SDS011;18869;55.970;37.502;2023-03-26T05:30:19;17.20;;;10.40;;
32407;SDS011;18869;55.970;37.502;2023-03-26T05:32:48;11.83;;;9.07;;
32407;SDS011;18869;55.970;37.502;2023-03-26T05:35:17;18.33;;;10.30;;
32407;SDS011;18869;55.970;37.502;2023-03-26T05:37:47;13.73;;;9.87;;
32407;SDS011;18869;55.970;37.502;2023-03-26T05:40:21;15.13;;;10.43;;
32407;SDS011;18869;55.970;37.502;2023-03-26T05:42:49;15.03;;;9.97;;
32407;SDS011;18869;55.970;37.502;2023-03-26T05:45:19;17.97;;;12.13;;
32407;SDS011;18869;55.970;37.502;2023-03-26T05:47:47;14.57;;;10.43;;
32407;SDS011;18869;55.970;37.502;2023-03-26T05:50:16;15.47;;;10.40;;
32407;SDS011;18869;55.970;37.502;2023-03-26T05:52:44;21.47;;;11.90;;
32407;SDS011;18869;55.970;37.502;2023-03-26T05:55:22;18.93;;;11.67;;
32407;SDS011;18869;55.970;37.502;2023-03-26T05:57:58;18.83;;;12.63;;
32407;SDS011;18869;55.970;37.502;2023-03-26T06:00:27;19.57;;;12.50;;
32407;SDS011;18869;55.970;37.502;2023-03-26T06:02:55;19.27;;;11.97;;
32407;SDS011;18869;55.970;37.502;2023-03-26T06:05:26;15.73;;;11.03;;
32407;SDS011;18869;55.970;37.502;2023-03-26T06:08:01;16.97;;;11.20;;
32407;SDS011;18869;55.970;37.502;2023-03-26T06:10:30;15.70;;;10.67;;
32407;SDS011;18869;55.970;37.502;2023-03-26T06:12:58;18.07;;;12.13;;
32407;SDS011;18869;55.970;37.502;2023-03-26T06:15:26;17.40;;;11.23;;
32407;SDS011;18869;55.970;37.502;2023-03-26T06:17:56;19.13;;;11.40;;
32407;SDS011;18869;55.970;37.502;2023-03-26T06:20:29;15.67;;;11.40;;
32407;SDS011;18869;55.970;37.502;2023-03-26T06:22:56;20.13;;;12.10;;
32407;SDS011;18869;55.970;37.502;2023-03-26T06:25:27;16.60;;;11.07;;
32407;SDS011;18869;55.970;37.502;2023-03-26T06:27:56;19.67;;;12.10;;
32407;SDS011;18869;55.970;37.502;2023-03-26T06:30:25;16.20;;;12.13;;
32407;SDS011;18869;55.970;37.502;2023-03-26T06:32:53;16.17;;;11.40;;
32407;SDS011;18869;55.970;37.502;2023-03-26T06:35:21;15.37;;;11.37;;
32407;SDS011;18869;55.970;37.502;2023-03-26T06:37:51;17.07;;;11.10;;
32407;SDS011;18869;55.970;37.502;2023-03-26T06:40:20;16.63;;;11.47;;
32407;SDS011;18869;55.970;37.502;2023-03-26T06:42:50;15.97;;;10.63;;
32407;SDS011;18869;55.970;37.502;2023-03-26T06:45:21;15.53;;;11.70;;
32407;SDS011;18869;55.970;37.502;2023-03-26T06:47:51;15.03;;;10.67;;
32407;SDS011;18869;55.970;37.502;2023-03-26T06:50:20;21.37;;;13.10;;
32407;SDS011;18869;55.970;37.502;2023-03-26T06:52:52;18.00;;;12.70;;
32407;SDS011;18869;55.970;37.502;2023-03-26T06:55:22;16.17;;;11.77;;
32407;SDS011;18869;55.970;37.502;2023-03-26T06:57:51;19.53;;;12.70;;
32407;SDS011;18869;55.970;37.502;2023-03-26T07:00:21;24.73;;;13.03;;
32407;SDS011;18869;55.970;37.502;2023-03-26T07:02:51;16.33;;;12.17;;
32407;SDS011;18869;55.970;37.502;2023-03-26T07:05:31;28.30;;;13.30;;
32407;SDS011;18869;55.970;37.502;2023-03-26T07:08:01;19.20;;;12.77;;
32407;SDS011;18869;55.970;37.502;2023-03-26T07:10:39;21.20;;;14.17;;
32407;SDS011;18869;55.970;37.502;2023-03-26T07:13:07;17.77;;;11.73;;
32407;SDS011;18869;55.970;37.502;2023-03-26T07:15:38;16.37;;;11.63;;
32407;SDS011;18869;55.970;37.502;2023-03-26T07:18:06;19.97;;;11.93;;
32407;SDS011;18869;55.970;37.502;2023-03-26T07:20:34;22.27;;;12.43;;
32407;SDS011;18869;55.970;37.502;2023-03-26T07:23:03;14.87;;;10.80;;
32407;SDS011;18869;55.970;37.502;2023-03-26T07:25:32;13.40;;;10.27;;
32407;SDS011;18869;55.970;37.502;2023-03-26T07:28:04;15.10;;;10.57;;
32407;SDS011;18869;55.970;37.502;2023-03-26T07:30:45;14.03;;;11.03;;
32407;SDS011;18869;55.970;37.502;2023-03-26T07:33:17;14.17;;;10.33;;
32407;SDS011;18869;55.970;37.502;2023-03-26T07:35:50;14.87;;;9.63;;
32407;SDS011;18869;55.970;37.502;2023-03-26T07:38:23;13.17;;;9.27;;
32407;SDS011;18869;55.970;37.502;2023-03-26T07:40:58;14.40;;;10.57;;
32407;SDS011;18869;55.970;37.502;2023-03-26T07:43:39;11.40;;;9.30;;
32407;SDS011;18869;55.970;37.502;2023-03-26T07:46:16;12.20;;;9.77;;
32407;SDS011;18869;55.970;37.502;2023-03-26T07:48:44;12.73;;;9.83;;
32407;SDS011;18869;55.970;37.502;2023-03-26T07:51:14;15.80;;;10.73;;
32407;SDS011;18869;55.970;37.502;2023-03-26T07:53:45;13.90;;;9.83;;
32407;SDS011;18869;55.970;37.502;2023-03-26T07:56:14;14.67;;;9.83;;
32407;SDS011;18869;55.970;37.502;2023-03-26T07:58:48;15.13;;;11.37;;
32407;SDS011;18869;55.970;37.502;2023-03-26T08:01:26;17.87;;;10.43;;
32407;SDS011;18869;55.970;37.502;2023-03-26T08:04:06;13.40;;;10.73;;
32407;SDS011;18869;55.970;37.502;2023-03-26T08:06:42;15.90;;;10.97;;
32407;SDS011;18869;55.970;37.502;2023-03-26T08:09:18;12.83;;;9.27;;
32407;SDS011;18869;55.970;37.502;2023-03-26T08:11:56;15.50;;;10.87;;
32407;SDS011;18869;55.970;37.502;2023-03-26T08:14:37;14.07;;;10.70;;
32407;SDS011;18869;55.970;37.502;2023-03-26T08:17:13;15.00;;;10.97;;
32407;SDS011;18869;55.970;37.502;2023-03-26T08:19:46;13.97;;;10.80;;
32407;SDS011;18869;55.970;37.502;2023-03-26T08:22:29;12.43;;;10.40;;
32407;SDS011;18869;55.970;37.502;2023-03-26T08:25:02;12.87;;;10.37;;
32407;SDS011;18869;55.970;37.502;2023-03-26T08:27:38;12.97;;;10.17;;
32407;SDS011;18869;55.970;37.502;2023-03-26T08:30:10;12.40;;;10.30;;
32407;SDS011;18869;55.970;37.502;2023-03-26T08:32:43;11.07;;;9.97;;
32407;SDS011;18869;55.970;37.502;2023-03-26T08:35:17;12.63;;;9.60;;
32407;SDS011;18869;55.970;37.502;2023-03-26T08:37:46;12.13;;;9.37;;
32407;SDS011;18869;55.970;37.502;2023-03-26T08:40:16;10.00;;;9.00;;
32407;SDS011;18869;55.970;37.502;2023-03-26T08:45:47;12.23;;;10.17;;
32407;SDS011;18869;55.970;37.502;2023-03-26T08:54:44;11.03;;;9.90;;
32407;SDS011;18869;55.970;37.502;2023-03-26T09:00:39;10.53;;;9.40;;
32407;SDS011;18869;55.970;37.502;2023-03-26T09:03:22;11.40;;;9.83;;
32407;SDS011;18869;55.970;37.502;2023-03-26T09:06:24;10.10;;;9.03;;
32407;SDS011;18869;55.970;37.502;2023-03-26T09:24:38;8.30;;;7.50;;
32407;SDS011;18869;55.970;37.502;2023-03-26T09:27:28;8.80;;;8.00;;
32407;SDS011;18869;55.970;37.502;2023-03-26T09:30:19;8.40;;;7.60;;
32407;SDS011;18869;55.970;37.502;2023-03-26T09:36:19;10.13;;;9.17;;
32407;SDS011;18869;55.970;37.502;2023-03-26T09:38:55;8.07;;;7.30;;
32407;SDS011;18869;55.970;37.502;2023-03-26T09:41:35;8.27;;;7.47;;
32407;SDS011;18869;55.970;37.502;2023-03-26T09:47:15;8.13;;;7.33;;
32407;SDS011;18869;55.970;37.502;2023-03-26T09:50:01;7.57;;;6.87;;
32407;SDS011;18869;55.970;37.502;2023-03-26T09:52:46;8.00;;;7.30;;
32407;SDS011;18869;55.970;37.502;2023-03-26T09:58:25;7.73;;;7.00;;
32407;SDS011;18869;55.970;37.502;2023-03-26T10:01:12;6.63;;;6.03;;
32407;SDS011;18869;55.970;37.502;2023-03-26T10:03:47;7.73;;;6.83;;
32407;SDS011;18869;55.970;37.502;2023-03-26T10:06:23;6.87;;;6.30;;
32407;SDS011;18869;55.970;37.502;2023-03-26T10:09:13;6.17;;;5.67;;
32407;SDS011;18869;55.970;37.502;2023-03-26T10:12:13;5.97;;;4.93;;
32407;SDS011;18869;55.970;37.502;2023-03-26T10:14:55;5.40;;;5.00;;
32407;SDS011;18869;55.970;37.502;2023-03-26T10:17:32;5.80;;;5.17;;
32407;SDS011;18869;55.970;37.502;2023-03-26T10:20:10;5.23;;;4.73;;
32407;SDS011;18869;55.970;37.502;2023-03-26T10:22:51;5.57;;;5.17;;
32407;SDS011;18869;55.970;37.502;2023-03-26T10:25:34;4.93;;;4.53;;
32407;SDS011;18869;55.970;37.502;2023-03-26T10:28:11;4.60;;;4.30;;
32407;SDS011;18869;55.970;37.502;2023-03-26T10:31:01;5.00;;;4.60;;
32407;SDS011;18869;55.970;37.502;2023-03-26T10:33:38;5.27;;;4.87;;
32407;SDS011;18869;55.970;37.502;2023-03-26T10:36:14;7.73;;;5.10;;
32407;SDS011;18869;55.970;37.502;2023-03-26T10:39:00;4.23;;;3.93;;
32407;SDS011;18869;55.970;37.502;2023-03-26T10:41:48;4.70;;;4.40;;
32407;SDS011;18869;55.970;37.502;2023-03-26T10:44:32;5.07;;;4.67;;
32407;SDS011;18869;55.970;37.502;2023-03-26T10:47:25;5.33;;;4.83;;
32407;SDS011;18869;55.970;37.502;2023-03-26T10:50:10;4.50;;;4.20;;
32407;SDS011;18869;55.970;37.502;2023-03-26T10:52:53;4.43;;;4.07;;
32407;SDS011;18869;55.970;37.502;2023-03-26T10:55:26;4.60;;;4.20;;
32407;SDS011;18869;55.970;37.502;2023-03-26T10:57:56;4.80;;;4.50;;
32407;SDS011;18869;55.970;37.502;2023-03-26T11:00:26;4.97;;;4.57;;
32407;SDS011;18869;55.970;37.502;2023-03-26T11:03:06;4.67;;;4.27;;
32407;SDS011;18869;55.970;37.502;2023-03-26T11:05:45;4.63;;;4.23;;
32407;SDS011;18869;55.970;37.502;2023-03-26T11:08:17;5.07;;;3.97;;
32407;SDS011;18869;55.970;37.502;2023-03-26T11:10:49;4.07;;;3.83;;
32407;SDS011;18869;55.970;37.502;2023-03-26T11:13:23;5.20;;;4.23;;
32407;SDS011;18869;55.970;37.502;2023-03-26T11:15:55;6.37;;;4.83;;
32407;SDS011;18869;55.970;37.502;2023-03-26T11:18:27;5.10;;;4.63;;
32407;SDS011;18869;55.970;37.502;2023-03-26T11:21:00;4.23;;;3.83;;
32407;SDS011;18869;55.970;37.502;2023-03-26T11:23:33;5.30;;;4.90;;
32407;SDS011;18869;55.970;37.502;2023-03-26T11:26:05;5.40;;;5.00;;
32407;SDS011;18869;55.970;37.502;2023-03-26T11:31:37;4.70;;;4.30;;
32407;SDS011;18869;55.970;37.502;2023-03-26T11:34:12;5.80;;;4.70;;
32407;SDS011;18869;55.970;37.502;2023-03-26T11:36:42;4.50;;;4.10;;
32407;SDS011;18869;55.970;37.502;2023-03-26T11:39:13;4.50;;;4.20;;
32407;SDS011;18869;55.970;37.502;2023-03-26T11:41:45;5.03;;;4.50;;
32407;SDS011;18869;55.970;37.502;2023-03-26T11:44:20;5.63;;;5.13;;
32407;SDS011;18869;55.970;37.502;2023-03-26T11:46:51;9.50;;;5.43;;
32407;SDS011;18869;55.970;37.502;2023-03-26T11:49:24;5.80;;;5.30;;
32407;SDS011;18869;55.970;37.502;2023-03-26T11:51:54;6.07;;;5.47;;
32407;SDS011;18869;55.970;37.502;2023-03-26T11:54:21;6.17;;;5.67;;
32407;SDS011;18869;55.970;37.502;2023-03-26T11:56:50;6.07;;;5.57;;
32407;SDS011;18869;55.970;37.502;2023-03-26T11:59:19;7.93;;;6.67;;
32407;SDS011;18869;55.970;37.502;2023-03-26T12:01:55;6.87;;;6.00;;
32407;SDS011;18869;55.970;37.502;2023-03-26T12:04:26;6.17;;;5.67;;
32407;SDS011;18869;55.970;37.502;2023-03-26T12:06:56;8.23;;;6.47;;
32407;SDS011;18869;55.970;37.502;2023-03-26T12:09:25;7.27;;;6.30;;
32407;SDS011;18869;55.970;37.502;2023-03-26T12:11:54;9.03;;;6.20;;
32407;SDS011;18869;55.970;37.502;2023-03-26T12:14:29;6.83;;;6.17;;
32407;SDS011;18869;55.970;37.502;2023-03-26T12:17:00;7.60;;;6.87;;
32407;SDS011;18869;55.970;37.502;2023-03-26T12:19:36;6.93;;;6.23;;
32407;SDS011;18869;55.970;37.502;2023-03-26T12:25:08;7.53;;;6.63;;
32407;SDS011;18869;55.970;37.502;2023-03-26T12:27:42;9.63;;;7.13;;
32407;SDS011;18869;55.970;37.502;2023-03-26T12:30:17;7.13;;;6.43;;
32407;SDS011;18869;55.970;37.502;2023-03-26T12:32:46;8.87;;;6.97;;
32407;SDS011;18869;55.970;37.502;2023-03-26T12:35:17;8.53;;;7.73;;
32407;SDS011;18869;55.970;37.502;2023-03-26T12:37:51;9.60;;;8.70;;
32407;SDS011;18869;55.970;37.502;2023-03-26T12:40:27;10.23;;;8.50;;
32407;SDS011;18869;55.970;37.502;2023-03-26T12:42:56;12.47;;;8.93;;
32407;SDS011;18869;55.970;37.502;2023-03-26T12:45:27;8.57;;;7.77;;
32407;SDS011;18869;55.970;37.502;2023-03-26T12:47:56;9.13;;;8.33;;
32407;SDS011;18869;55.970;37.502;2023-03-26T12:50:28;9.37;;;8.03;;
32407;SDS011;18869;55.970;37.502;2023-03-26T12:53:05;10.13;;;9.13;;
32407;SDS011;18869;55.970;37.502;2023-03-26T12:55:41;9.83;;;8.83;;
32407;SDS011;18869;55.970;37.502;2023-03-26T12:58:18;16.77;;;12.57;;
32407;SDS011;18869;55.970;37.502;2023-03-26T13:00:54;13.90;;;12.50;;
32407;SDS011;18869;55.970;37.502;2023-03-26T13:03:29;14.87;;;13.37;;
32407;SDS011;18869;55.970;37.502;2023-03-26T13:09:03;14.60;;;12.63;;
32407;SDS011;18869;55.970;37.502;2023-03-26T13:11:43;15.60;;;13.57;;
32407;SDS011;18869;55.970;37.502;2023-03-26T13:14:26;14.33;;;12.03;;
32407;SDS011;18869;55.970;37.502;2023-03-26T13:17:03;17.37;;;14.27;;
32407;SDS011;18869;55.970;37.502;2023-03-26T13:19:35;16.23;;;12.80;;
32407;SDS011;18869;55.970;37.502;2023-03-26T13:22:09;15.73;;;14.13;;
32407;SDS011;18869;55.970;37.502;2023-03-26T13:24:45;16.47;;;12.97;;
32407;SDS011;18869;55.970;37.502;2023-03-26T13:27:21;20.20;;;14.53;;
32407;SDS011;18869;55.970;37.502;2023-03-26T13:29:58;19.20;;;15.70;;
32407;SDS011;18869;55.970;37.502;2023-03-26T13:32:33;18.07;;;15.20;;
32407;SDS011;18869;55.970;37.502;2023-03-26T13:35:12;15.23;;;13.17;;
32407;SDS011;18869;55.970;37.502;2023-03-26T13:37:52;15.93;;;14.23;;
32407;SDS011;18869;55.970;37.502;2023-03-26T13:40:25;17.50;;;14.40;;
32407;SDS011;18869;55.970;37.502;2023-03-26T13:43:10;17.70;;;15.53;;
32407;SDS011;18869;55.970;37.502;2023-03-26T13:45:53;19.47;;;15.50;;
32407;SDS011;18869;55.970;37.502;2023-03-26T13:48:24;17.13;;;14.30;;
32407;SDS011;18869;55.970;37.502;2023-03-26T13:50:58;15.63;;;13.83;;
32407;SDS011;18869;55.970;37.502;2023-03-26T13:53:33;16.97;;;14.93;;
32407;SDS011;18869;55.970;37.502;2023-03-26T13:56:04;16.03;;;14.40;;
32407;SDS011;18869;55.970;37.502;2023-03-26T13:58:35;16.50;;;13.60;;
32407;SDS011;18869;55.970;37.502;2023-03-26T14:01:06;16.10;;;14.00;;
32407;SDS011;18869;55.970;37.502;2023-03-26T14:03:40;17.63;;;15.37;;
32407;SDS011;18869;55.970;37.502;2023-03-26T14:06:23;19.50;;;15.80;;
32407;SDS011;18869;55.970;37.502;2023-03-26T14:08:59;19.00;;;16.77;;
32407;SDS011;18869;55.970;37.502;2023-03-26T14:11:47;17.87;;;15.20;;
32407;SDS011;18869;55.970;37.502;2023-03-26T14:14:18;18.97;;;16.77;;
32407;SDS011;18869;55.970;37.502;2023-03-26T14:16:53;16.57;;;14.00;;
32407;SDS011;18869;55.970;37.502;2023-03-26T14:19:34;17.40;;;14.03;;
32407;SDS011;18869;55.970;37.502;2023-03-26T14:22:18;17.57;;;14.27;;
32407;SDS011;18869;55.970;37.502;2023-03-26T14:27:44;17.37;;;13.03;;
32407;SDS011;18869;55.970;37.502;2023-03-26T14:33:26;16.57;;;14.17;;
32407;SDS011;18869;55.970;37.502;2023-03-26T14:36:14;15.53;;;13.50;;
32407;SDS011;18869;55.970;37.502;2023-03-26T14:41:55;18.30;;;15.10;;
32407;SDS011;18869;55.970;37.502;2023-03-26T14:44:29;20.23;;;17.03;;
32407;SDS011;18869;55.970;37.502;2023-03-26T14:47:21;16.87;;;13.80;;
32407;SDS011;18869;55.970;37.502;2023-03-26T14:53:00;14.97;;;13.37;;
32407;SDS011;18869;55.970;37.502;2023-03-26T14:58:48;15.33;;;12.97;;
32407;SDS011;18869;55.970;37.502;2023-03-26T15:01:27;14.87;;;13.30;;
32407;SDS011;18869;55.970;37.502;2023-03-26T15:07:06;13.50;;;12.10;;
32407;SDS011;18869;55.970;37.502;2023-03-26T15:09:55;14.63;;;12.33;;
32407;SDS011;18869;55.970;37.502;2023-03-26T15:12:39;15.67;;;12.90;;
32407;SDS011;18869;55.970;37.502;2023-03-26T15:24:54;13.33;;;11.67;;
32407;SDS011;18869;55.970;37.502;2023-03-26T15:27:48;14.63;;;11.57;;
32407;SDS011;18869;55.970;37.502;2023-03-26T15:30:33;13.23;;;11.70;;
32407;SDS011;18869;55.970;37.502;2023-03-26T15:36:26;12.57;;;11.27;;
32407;SDS011;18869;55.970;37.502;2023-03-26T15:39:30;13.60;;;11.50;;
32407;SDS011;18869;55.970;37.502;2023-03-26T15:42:13;15.03;;;11.70;;
32407;SDS011;18869;55.970;37.502;2023-03-26T15:44:53;11.30;;;10.20;;
32407;SDS011;18869;55.970;37.502;2023-03-26T15:47:37;13.57;;;11.87;;
32407;SDS011;18869;55.970;37.502;2023-03-26T15:50:17;11.50;;;10.30;;
32407;SDS011;18869;55.970;37.502;2023-03-26T15:52:51;11.80;;;10.70;;
32407;SDS011;18869;55.970;37.502;2023-03-26T15:55:29;14.27;;;10.33;;
32407;SDS011;18869;55.970;37.502;2023-03-26T15:58:05;11.20;;;9.87;;
32407;SDS011;18869;55.970;37.502;2023-03-26T16:00:42;11.10;;;9.37;;
32407;SDS011;18869;55.970;37.502;2023-03-26T16:03:27;11.03;;;9.93;;
32407;SDS011;18869;55.970;37.502;2023-03-26T16:06:09;10.67;;;9.57;;
32407;SDS011;18869;55.970;37.502;2023-03-26T16:08:46;11.20;;;10.00;;
32407;SDS011;18869;55.970;37.502;2023-03-26T16:14:17;10.80;;;9.70;;